sensor_id;sensor_type;location;lat;lon;timestamp;temperature;humidity
35395;DHT22;21500;45.308;9.488;2023-03-21T09:56:31;17.20;99.90
35395;DHT22;21500;45.308;9.488;2023-03-21T09:59:44;16.50;99.90
35395;DHT22;21500;45.308;9.488;2023-03-21T10:18:00;18.70;99.90
35395;DHT22;21500;45.308;9.488;2023-03-21T10:29:02;18.70;99.90
35395;DHT22;21500;45.308;9.488;2023-03-21T10:31:47;18.60;99.90
35395;DHT22;21500;45.308;9.488;2023-03-21T10:39:44;17.00;99.90
35395;DHT22;21500;45.308;9.488;2023-03-21T10:49:34;18.90;99.90
35395;DHT22;21500;45.308;9.488;2023-03-21T11:05:42;18.50;99.90
35395;DHT22;21500;45.308;9.488;2023-03-21T11:08:14;18.50;99.90
35395;DHT22;21500;45.308;9.488;2023-03-21T11:11:09;18.10;99.90
35395;DHT22;21500;45.308;9.488;2023-03-21T11:13:43;17.90;99.90
35395;DHT22;21500;45.308;9.488;2023-03-21T11:16:29;18.20;99.90
35395;DHT22;21500;45.308;9.488;2023-03-21T11:26:21;19.00;99.90
35395;DHT22;21500;45.308;9.488;2023-03-21T11:29:34;18.80;99.90
35395;DHT22;21500;45.308;9.488;2023-03-21T11:32:39;18.50;99.90
35395;DHT22;21500;45.308;9.488;2023-03-21T11:35:32;19.40;99.90
35395;DHT22;21500;45.308;9.488;2023-03-21T11:37:59;19.10;99.90
35395;DHT22;21500;45.308;9.488;2023-03-21T11:40:36;19.50;99.90
35395;DHT22;21500;45.308;9.488;2023-03-21T11:43:54;19.50;99.90
35395;DHT22;21500;45.308;9.488;2023-03-21T11:58:46;19.90;99.90
35395;DHT22;21500;45.308;9.488;2023-03-21T12:01:39;20.90;99.90
35395;DHT22;21500;45.308;9.488;2023-03-21T12:22:26;21.20;99.90
35395;DHT22;21500;45.308;9.488;2023-03-21T12:25:20;21.60;99.90
35395;DHT22;21500;45.308;9.488;2023-03-21T12:34:50;22.10;99.90
35395;DHT22;21500;45.308;9.488;2023-03-21T13:01:54;22.40;99.70
35395;DHT22;21500;45.308;9.488;2023-03-21T13:04:54;22.20;99.60
35395;DHT22;21500;45.308;9.488;2023-03-21T13:29:34;22.70;98.60
35395;DHT22;21500;45.308;9.488;2023-03-21T13:32:39;21.80;99.00
35395;DHT22;21500;45.308;9.488;2023-03-21T13:56:28;20.10;99.90
35395;DHT22;21500;45.308;9.488;2023-03-21T13:59:10;20.80;99.90
35395;DHT22;21500;45.308;9.488;2023-03-21T14:05:18;20.60;99.90
35395;DHT22;21500;45.308;9.488;2023-03-21T14:07:58;20.40;99.90
35395;DHT22;21500;45.308;9.488;2023-03-21T14:10:44;20.20;99.90
35395;DHT22;21500;45.308;9.488;2023-03-21T14:13:19;20.90;99.90
35395;DHT22;21500;45.308;9.488;2023-03-21T14:19:12;21.10;99.50
35395;DHT22;21500;45.308;9.488;2023-03-21T14:22:30;21.40;99.10
35395;DHT22;21500;45.308;9.488;2023-03-21T14:25:42;21.60;99.30
35395;DHT22;21500;45.308;9.488;2023-03-21T14:28:40;21.90;98.60
35395;DHT22;21500;45.308;9.488;2023-03-21T14:34:31;22.10;97.80
35395;DHT22;21500;45.308;9.488;2023-03-21T14:37:48;21.30;98.00
35395;DHT22;21500;45.308;9.488;2023-03-21T15:03:09;21.40;98.40
35395;DHT22;21500;45.308;9.488;2023-03-21T15:05:57;21.50;98.70
35395;DHT22;21500;45.308;9.488;2023-03-21T15:08:34;21.70;98.50
35395;DHT22;21500;45.308;9.488;2023-03-21T15:52:13;19.90;99.90
35395;DHT22;21500;45.308;9.488;2023-03-21T15:55:10;19.80;99.90
35395;DHT22;21500;45.308;9.488;2023-03-21T16:15:21;19.60;99.90
35395;DHT22;21500;45.308;9.488;2023-03-21T16:17:59;19.80;99.90
35395;DHT22;21500;45.308;9.488;2023-03-21T16:20:33;19.70;99.90
35395;DHT22;21500;45.308;9.488;2023-03-21T18:18:46;17.40;99.90
35395;DHT22;21500;45.308;9.488;2023-03-21T18:21:13;17.30;99.90
35395;DHT22;21500;45.308;9.488;2023-03-21T18:23:39;17.30;99.90
35395;DHT22;21500;45.308;9.488;2023-03-21T18:26:06;17.20;99.90
35395;DHT22;21500;45.308;9.488;2023-03-21T18:28:36;17.20;99.90
35395;DHT22;21500;45.308;9.488;2023-03-21T18:31:13;17.20;99.90
35395;DHT22;21500;45.308;9.488;2023-03-21T18:33:41;17.10;99.90
35395;DHT22;21500;45.308;9.488;2023-03-21T18:36:11;17.10;99.90
35395;DHT22;21500;45.308;9.488;2023-03-21T18:38:38;17.00;99.90
35395;DHT22;21500;45.308;9.488;2023-03-21T18:41:05;17.00;99.90
35395;DHT22;21500;45.308;9.488;2023-03-21T18:43:32;16.90;99.90
35395;DHT22;21500;45.308;9.488;2023-03-21T18:45:59;16.90;99.90
35395;DHT22;21500;45.308;9.488;2023-03-21T18:48:24;16.90;99.90
35395;DHT22;21500;45.308;9.488;2023-03-21T18:50:50;16.90;99.90
35395;DHT22;21500;45.308;9.488;2023-03-21T18:53:16;16.80;99.90
35395;DHT22;21500;45.308;9.488;2023-03-21T18:55:42;16.80;99.90
35395;DHT22;21500;45.308;9.488;2023-03-21T18:58:09;16.80;99.90
35395;DHT22;21500;45.308;9.488;2023-03-21T19:00:38;16.80;99.90
35395;DHT22;21500;45.308;9.488;2023-03-21T19:03:06;16.70;99.90
35395;DHT22;21500;45.308;9.488;2023-03-21T19:05:32;16.70;99.90
35395;DHT22;21500;45.308;9.488;2023-03-21T19:07:59;16.80;99.90
35395;DHT22;21500;45.308;9.488;2023-03-21T19:10:25;16.70;99.90
35395;DHT22;21500;45.308;9.488;2023-03-21T19:19:04;16.60;99.90
35395;DHT22;21500;45.308;9.488;2023-03-21T19:21:30;16.60;99.90
35395;DHT22;21500;45.308;9.488;2023-03-21T19:27:46;16.50;99.90
35395;DHT22;21500;45.308;9.488;2023-03-21T19:30:16;16.50;99.90
35395;DHT22;21500;45.308;9.488;2023-03-21T19:41:55;16.50;99.90
35395;DHT22;21500;45.308;9.488;2023-03-21T19:44:41;16.40;99.90
35395;DHT22;21500;45.308;9.488;2023-03-21T19:47:15;16.30;99.90
35395;DHT22;21500;45.308;9.488;2023-03-21T19:49:56;16.40;99.90
35395;DHT22;21500;45.308;9.488;2023-03-21T20:11:26;16.10;99.90
35395;DHT22;21500;45.308;9.488;2023-03-21T20:13:52;16.00;99.90
35395;DHT22;21500;45.308;9.488;2023-03-21T20:16:21;16.10;99.90
35395;DHT22;21500;45.308;9.488;2023-03-21T20:18:51;16.00;99.90
35395;DHT22;21500;45.308;9.488;2023-03-21T20:21:40;16.00;99.90
35395;DHT22;21500;45.308;9.488;2023-03-21T20:24:13;16.00;99.90
35395;DHT22;21500;45.308;9.488;2023-03-21T20:36:09;15.70;99.90
